Time;durP1;ratioP1;P1;durP2;ratioP2;P2;SDS_P1;SDS_P2;PMS_P1;PMS_P2;Temp;Humidity;BMP_temperature;BMP_pressure;BME280_temperature;BME280_humidity;BME280_pressure;Samples;Min_cycle;Max_cycle;Signal;HPM_P1;HPM_P2
2022/12/18 00:01:22;;;;;;;27.23;16.27;;;;;;;-3.28;96.14;102258.19;5000811;28;20042;-77
2022/12/18 00:03:47;;;;;;;27.67;16.10;;;;;;;-3.38;95.71;102271.16;4983691;28;20560;-76
2022/12/18 00:06:14;;;;;;;25.40;15.23;;;;;;;-3.40;96.49;102260.75;4983499;28;20076;-77
2022/12/18 00:08:40;;;;;;;31.80;19.10;;;;;;;-3.40;95.52;102265.00;5002200;28;20025;-77
2022/12/18 00:11:11;;;;;;;28.33;16.80;;;;;;;-3.60;96.23;102266.91;4999819;28;20477;-77
2022/12/18 00:13:38;;;;;;;27.63;16.85;;;;;;;-3.61;98.33;102272.88;5007093;28;20031;-76
2022/12/18 00:16:06;;;;;;;28.77;17.03;;;;;;;-3.53;99.15;102271.78;5001301;28;20536;-77
2022/12/18 00:18:32;;;;;;;28.87;18.27;;;;;;;-3.44;98.02;102274.19;5006922;28;20030;-77
2022/12/18 00:21:00;;;;;;;22.27;15.33;;;;;;;-3.52;98.13;102273.56;5003318;28;20115;-76
2022/12/18 00:23:26;;;;;;;30.13;16.73;;;;;;;-3.66;98.61;102281.94;4989204;28;20040;-77
2022/12/18 00:25:51;;;;;;;26.83;16.87;;;;;;;-3.62;100.00;102281.38;5004032;28;20416;-76
2022/12/18 00:28:16;;;;;;;29.73;17.43;;;;;;;-3.44;100.00;102273.28;5005289;28;20045;-77
2022/12/18 00:30:41;;;;;;;25.23;15.90;;;;;;;-3.25;100.00;102279.06;5005204;28;20050;-77
2022/12/18 00:33:07;;;;;;;28.37;16.43;;;;;;;-3.27;100.00;102283.25;4986483;28;20045;-77
2022/12/18 00:35:32;;;;;;;27.73;15.67;;;;;;;-3.15;100.00;102286.75;4984798;28;20077;-76
2022/12/18 00:37:57;;;;;;;26.70;16.70;;;;;;;-2.98;99.16;102282.00;5006564;28;20034;-76
2022/12/18 00:40:23;;;;;;;25.27;16.00;;;;;;;-2.85;98.20;102282.16;5003650;28;20061;-77
2022/12/18 00:42:57;;;;;;;27.10;16.67;;;;;;;-2.75;97.76;102287.25;5010560;28;20042;-77
2022/12/18 00:45:29;;;;;;;24.17;14.60;;;;;;;-2.64;97.04;102298.38;4985888;28;20521;-77
2022/12/18 00:47:55;;;;;;;27.13;17.93;;;;;;;-2.61;95.79;102297.72;4986079;28;20045;-77
2022/12/18 00:50:22;;;;;;;27.10;16.37;;;;;;;-2.61;96.16;102300.31;4987745;28;20038;-77
2022/12/18 00:52:47;;;;;;;26.50;16.30;;;;;;;-2.52;96.18;102306.16;4984156;28;20035;-77
2022/12/18 00:55:13;;;;;;;24.60;15.73;;;;;;;-2.47;95.77;102316.03;5005385;28;20397;-77
2022/12/18 00:57:38;;;;;;;25.40;15.93;;;;;;;-2.51;94.71;102314.03;5003038;28;20069;-77
2022/12/18 01:00:05;;;;;;;25.30;15.50;;;;;;;-2.57;94.88;102312.66;5006126;28;20500;-76
2022/12/18 01:02:31;;;;;;;21.57;14.53;;;;;;;-2.57;94.78;102310.06;5003304;28;20034;-77
2022/12/18 01:04:56;;;;;;;24.63;15.40;;;;;;;-2.65;95.11;102304.31;4987413;28;20381;-78
2022/12/18 01:07:22;;;;;;;23.57;15.10;;;;;;;-2.75;94.54;102307.91;4983439;28;20045;-77
2022/12/18 01:09:47;;;;;;;25.23;16.30;;;;;;;-2.75;94.68;102302.75;5009935;28;20117;-77
2022/12/18 01:12:12;;;;;;;27.23;16.57;;;;;;;-2.80;95.83;102309.25;4985485;28;20041;-77
2022/12/18 01:14:38;;;;;;;30.27;18.00;;;;;;;-2.91;96.11;102302.34;5005779;28;20042;-77
2022/12/18 01:17:04;;;;;;;28.70;15.87;;;;;;;-3.12;97.01;102310.28;4981675;28;20034;-77
2022/12/18 01:19:31;;;;;;;25.47;15.30;;;;;;;-3.05;97.80;102316.78;4988668;28;20095;-77
2022/12/18 01:21:57;;;;;;;28.70;16.73;;;;;;;-3.02;98.32;102310.97;5003851;28;20034;-77
2022/12/18 01:24:22;;;;;;;25.80;16.53;;;;;;;-3.15;97.64;102309.09;4984097;28;20050;-77
2022/12/18 01:26:48;;;;;;;27.07;16.07;;;;;;;-3.21;98.40;102309.53;5005184;28;20030;-77
2022/12/18 01:29:13;;;;;;;27.20;16.73;;;;;;;-3.21;99.23;102316.38;5002301;28;20034;-77
2022/12/18 01:31:39;;;;;;;26.43;17.20;;;;;;;-3.19;100.00;102309.66;5003941;28;20046;-77
2022/12/18 01:34:05;;;;;;;26.83;16.20;;;;;;;-3.14;99.82;102314.41;5003759;28;20084;-77
2022/12/18 01:36:36;;;;;;;28.27;17.20;;;;;;;-3.06;99.54;102315.00;5006022;28;20037;-77
2022/12/18 01:39:10;;;;;;;22.43;14.00;;;;;;;-2.93;99.39;102327.19;5006683;28;20041;-77
2022/12/18 01:44:57;;;;;;;29.10;16.77;;;;;;;-3.10;96.94;102329.34;4984835;28;20088;-77
2022/12/18 01:47:32;;;;;;;26.17;14.83;;;;;;;-3.06;97.09;102334.78;5003808;28;20065;-76
2022/12/18 01:50:06;;;;;;;24.67;14.63;;;;;;;-3.12;96.42;102335.16;5002069;28;20034;-77
2022/12/18 01:52:32;;;;;;;21.33;14.00;;;;;;;-3.03;95.74;102335.91;4985733;28;20044;-77
2022/12/18 01:54:58;;;;;;;24.37;14.03;;;;;;;-3.00;94.49;102337.81;4988104;28;20042;-77
2022/12/18 01:57:26;;;;;;;22.53;13.67;;;;;;;-3.03;93.93;102346.22;4984016;28;20121;-77
2022/12/18 01:59:53;;;;;;;18.97;12.20;;;;;;;-3.18;92.90;102333.00;4987262;28;20112;-77
2022/12/18 02:02:20;;;;;;;20.83;12.90;;;;;;;-3.34;93.31;102333.50;4982215;28;20129;-77
2022/12/18 02:04:45;;;;;;;19.20;13.00;;;;;;;-3.36;94.09;102329.00;5003578;28;20413;-76
2022/12/18 02:07:28;;;;;;;21.47;13.53;;;;;;;-3.28;94.77;102317.56;4984378;28;20038;-77
2022/12/18 02:09:59;;;;;;;;;;;;;;;-3.35;93.89;102321.38;5003424;28;20496;-76
2022/12/18 02:12:38;;;;;;;23.33;14.07;;;;;;;-3.49;94.05;102327.13;5001822;28;19925;-77
2022/12/18 02:15:19;;;;;;;23.13;13.97;;;;;;;-3.60;95.94;102326.28;4985524;28;20470;-77
2022/12/18 02:17:54;;;;;;;24.87;16.53;;;;;;;-3.54;96.56;102325.84;4984302;28;20042;-77
2022/12/18 02:20:27;;;;;;;27.93;16.33;;;;;;;-3.57;96.33;102328.19;4984542;28;20050;-75
2022/12/18 02:23:04;;;;;;;26.77;15.60;;;;;;;-3.53;95.22;102333.72;4989414;28;20397;-75
2022/12/18 02:25:51;;;;;;;23.90;14.27;;;;;;;-3.48;94.11;102328.00;4984643;28;20038;-75
2022/12/18 02:28:21;;;;;;;25.13;15.30;;;;;;;-3.60;94.59;102328.84;4985514;28;20034;-75
2022/12/18 02:30:50;;;;;;;27.13;16.10;;;;;;;-3.62;95.35;102326.94;4967516;28;20037;-75
2022/12/18 02:33:18;;;;;;;23.87;15.47;;;;;;;-3.63;95.55;102332.88;4983920;28;20085;-75
2022/12/18 02:35:45;;;;;;;21.90;14.00;;;;;;;-3.66;95.16;102333.53;4985165;28;20030;-75
2022/12/18 02:38:13;;;;;;;27.30;15.70;;;;;;;-3.66;95.43;102337.81;4998643;28;20038;-75
2022/12/18 02:40:42;;;;;;;27.70;16.43;;;;;;;-3.66;94.66;102348.13;4987130;28;20658;-75
2022/12/18 02:43:10;;;;;;;26.40;14.93;;;;;;;-3.70;94.15;102352.13;4983397;28;20038;-75
2022/12/18 02:45:47;;;;;;;26.60;15.90;;;;;;;-3.69;93.72;102343.63;4985117;28;20125;-75
2022/12/18 02:48:13;;;;;;;32.03;16.00;;;;;;;-3.66;94.48;102346.44;4987881;28;20042;-75
2022/12/18 02:51:04;;;;;;;37.00;18.27;;;;;;;-3.86;95.20;102359.41;4983040;28;20044;-75
2022/12/18 02:53:44;;;;;;;32.92;17.05;;;;;;;-3.92;97.39;102353.75;4977000;28;20424;-75
2022/12/18 02:56:19;;;;;;;35.80;17.67;;;;;;;-3.90;97.43;102362.50;4983195;28;20059;-75
2022/12/18 02:59:09;;;;;;;42.03;19.23;;;;;;;-4.00;96.80;102351.44;4984104;28;20038;-75
2022/12/18 03:01:42;;;;;;;38.37;18.10;;;;;;;-4.00;97.32;102354.03;4992182;28;20034;-75
2022/12/18 03:04:16;;;;;;;31.70;17.40;;;;;;;-4.11;98.20;102346.16;4983617;28;20129;-74
2022/12/18 03:06:49;;;;;;;32.70;18.70;;;;;;;-4.15;98.84;102339.88;5000797;28;20046;-75
2022/12/18 03:09:21;;;;;;;32.43;16.93;;;;;;;-4.15;98.81;102342.47;4983758;28;20042;-75
2022/12/18 03:14:40;;;;;;;;;;;;;;;-4.13;99.41;102353.81;4983688;28;20095;-75
2022/12/18 03:17:13;;;;;;;32.60;16.00;;;;;;;-4.05;99.61;102349.28;4984629;28;19915;-75
2022/12/18 03:19:41;;;;;;;33.80;16.37;;;;;;;-4.09;99.50;102355.84;4981966;28;20503;-75
2022/12/18 03:22:07;;;;;;;31.60;16.87;;;;;;;-4.11;100.00;102361.66;4986216;28;20026;-75
2022/12/18 03:24:42;;;;;;;30.77;16.03;;;;;;;-4.01;99.95;102365.13;4981199;28;20037;-75
2022/12/18 03:27:12;;;;;;;30.10;15.43;;;;;;;-3.90;99.49;102368.59;5001286;28;20034;-75
2022/12/18 03:29:43;;;;;;;33.93;17.20;;;;;;;-3.83;97.70;102373.44;4982659;28;20033;-75
2022/12/18 03:32:17;;;;;;;30.40;16.13;;;;;;;-3.84;97.45;102368.19;4984390;28;20041;-75
2022/12/18 03:34:48;;;;;;;30.63;17.67;;;;;;;-3.97;97.31;102367.16;4985787;28;20460;-75
2022/12/18 03:37:15;;;;;;;31.42;16.58;;;;;;;-4.03;97.91;102364.09;4992766;28;20470;-75
2022/12/18 03:39:40;;;;;;;34.27;16.60;;;;;;;-4.04;98.65;102366.53;4984644;28;20133;-74
2022/12/18 03:42:20;;;;;;;35.17;17.53;;;;;;;-3.99;97.41;102362.66;4980993;28;20485;-74
2022/12/18 03:45:12;;;;;;;34.67;18.03;;;;;;;-3.94;97.01;102363.03;4983376;28;20058;-75
2022/12/18 03:47:43;;;;;;;35.93;17.70;;;;;;;-3.93;97.84;102363.19;4983094;28;20045;-75
2022/12/18 03:50:14;;;;;;;31.03;16.90;;;;;;;-3.92;97.37;102366.66;4983459;28;20036;-75
2022/12/18 03:53:17;;;;;;;40.27;19.60;;;;;;;-4.04;97.38;102379.44;4982476;28;20109;-75
2022/12/18 03:55:44;;;;;;;37.70;17.80;;;;;;;-4.06;98.46;102375.81;5003459;28;20037;-75
2022/12/18 03:58:16;;;;;;;32.80;16.10;;;;;;;-4.05;98.22;102377.66;4987370;28;20061;-74
2022/12/18 04:00:55;;;;;;;33.73;18.00;;;;;;;-4.07;97.52;102380.09;4990174;28;20030;-75
2022/12/18 04:03:21;;;;;;;30.90;17.27;;;;;;;-4.07;97.50;102390.41;5006032;28;20046;-75
2022/12/18 04:05:51;;;;;;;41.13;22.10;;;;;;;-4.16;97.50;102384.50;4992898;28;20521;-75
2022/12/18 04:08:20;;;;;;;40.80;19.20;;;;;;;-4.28;98.00;102388.63;5004335;28;20084;-75
2022/12/18 04:10:53;;;;;;;28.47;15.70;;;;;;;-4.27;98.58;102406.81;4985522;28;20062;-75
2022/12/18 04:13:32;;;;;;;31.47;17.33;;;;;;;-4.30;99.45;102405.63;5008145;28;20072;-75
2022/12/18 04:15:59;;;;;;;30.40;14.67;;;;;;;-4.31;98.93;102406.41;4987675;28;20034;-75
2022/12/18 04:18:25;;;;;;;27.93;15.50;;;;;;;-4.29;99.46;102417.78;4986626;28;20034;-75
2022/12/18 04:20:51;;;;;;;28.40;15.27;;;;;;;-4.30;98.57;102411.69;4996705;28;20615;-75
2022/12/18 04:23:17;;;;;;;30.57;16.23;;;;;;;-4.27;99.35;102406.81;4995328;28;20034;-75
2022/12/18 04:25:42;;;;;;;27.77;14.20;;;;;;;-4.26;98.87;102407.72;5005787;28;20052;-75
2022/12/18 04:28:11;;;;;;;24.97;14.00;;;;;;;-4.20;98.35;102403.06;4984450;28;20034;-75
2022/12/18 04:30:38;;;;;;;31.23;16.77;;;;;;;-4.28;97.14;102402.41;5005537;28;20030;-75
2022/12/18 04:33:07;;;;;;;31.80;17.13;;;;;;;-4.28;96.15;102409.25;4986004;28;20038;-75
2022/12/18 04:35:33;;;;;;;29.67;15.23;;;;;;;-4.26;96.04;102410.28;5003215;28;20046;-75
2022/12/18 04:37:58;;;;;;;26.23;13.03;;;;;;;-4.26;95.24;102411.19;5005690;28;20033;-75
2022/12/18 04:40:23;;;;;;;28.97;15.80;;;;;;;-4.29;96.01;102399.72;5004427;28;20030;-74
2022/12/18 04:42:49;;;;;;;33.13;16.73;;;;;;;-4.29;96.49;102397.16;4986778;28;20092;-74
2022/12/18 04:45:14;;;;;;;29.27;15.83;;;;;;;-4.25;97.01;102389.78;5011284;28;20037;-75
2022/12/18 04:47:40;;;;;;;27.37;14.90;;;;;;;-4.20;96.50;102397.91;5002872;28;20125;-75
2022/12/18 04:50:05;;;;;;;28.47;16.03;;;;;;;-4.09;97.46;102402.25;5006072;28;20041;-75
2022/12/18 04:52:31;;;;;;;27.80;14.20;;;;;;;-4.09;97.48;102411.69;5006250;28;20038;-75
2022/12/18 04:54:56;;;;;;;24.90;14.13;;;;;;;-4.22;97.46;102407.16;5004063;28;20448;-75
2022/12/18 04:57:21;;;;;;;23.67;13.70;;;;;;;-4.16;97.73;102399.97;5006419;28;20038;-75
2022/12/18 04:59:47;;;;;;;26.67;13.53;;;;;;;-4.13;98.06;102396.75;4986160;28;20112;-75
2022/12/18 05:02:12;;;;;;;22.60;13.10;;;;;;;-4.04;98.06;102397.50;5005545;28;20042;-75
2022/12/18 05:04:38;;;;;;;25.40;14.93;;;;;;;-4.04;97.32;102400.06;5002389;28;20042;-75
2022/12/18 05:07:03;;;;;;;27.33;14.93;;;;;;;-4.02;98.29;102402.00;5005460;28;20034;-75
2022/12/18 05:09:29;;;;;;;24.83;13.63;;;;;;;-3.99;97.62;102393.59;5003451;28;20584;-75
2022/12/18 05:11:54;;;;;;;25.70;13.90;;;;;;;-4.01;97.93;102401.25;5007213;28;20388;-75
2022/12/18 05:14:19;;;;;;;23.23;13.47;;;;;;;-4.04;97.66;102402.66;5004629;28;20104;-75
2022/12/18 05:16:45;;;;;;;23.40;13.63;;;;;;;-4.05;97.43;102403.44;5004611;28;20452;-75
2022/12/18 05:19:10;;;;;;;22.83;13.20;;;;;;;-4.07;98.14;102405.88;4984083;28;20382;-75
2022/12/18 05:21:36;;;;;;;21.87;12.50;;;;;;;-4.03;97.70;102409.63;5005770;28;20456;-75
2022/12/18 05:24:01;;;;;;;23.60;13.23;;;;;;;-4.03;97.09;102413.09;5002881;28;20042;-75
2022/12/18 05:26:26;;;;;;;19.70;11.87;;;;;;;-4.05;97.56;102426.66;5004292;28;20038;-75
2022/12/18 05:28:52;;;;;;;23.50;13.57;;;;;;;-4.10;98.01;102431.41;5003816;28;20100;-75
2022/12/18 05:31:17;;;;;;;22.50;11.63;;;;;;;-4.09;98.78;102425.47;5003285;28;20038;-75
2022/12/18 05:33:42;;;;;;;21.67;12.27;;;;;;;-4.20;98.39;102429.72;5004888;28;20088;-75
2022/12/18 05:36:08;;;;;;;21.17;12.90;;;;;;;-4.27;99.01;102439.41;5001799;28;20034;-75
2022/12/18 05:38:37;;;;;;;19.30;11.83;;;;;;;-4.23;99.47;102438.91;5006508;28;20035;-75
2022/12/18 05:41:03;;;;;;;20.77;11.13;;;;;;;-4.13;99.44;102443.16;4986611;28;20038;-75
2022/12/18 05:43:28;;;;;;;25.30;13.50;;;;;;;-4.14;99.52;102431.91;5004695;28;20038;-75
2022/12/18 05:45:54;;;;;;;26.83;15.33;;;;;;;-4.14;99.04;102438.75;5006841;28;20116;-75
2022/12/18 05:48:20;;;;;;;23.07;13.00;;;;;;;-4.17;99.73;102426.50;5002110;28;20065;-75
2022/12/18 05:50:46;;;;;;;26.80;13.43;;;;;;;-4.14;98.82;102419.03;5004965;28;20065;-75
2022/12/18 05:53:14;;;;;;;21.60;12.13;;;;;;;-4.09;99.20;102416.84;5002405;28;20065;-75
2022/12/18 05:55:41;;;;;;;28.87;14.83;;;;;;;-4.21;99.55;102415.06;5003345;28;20029;-74
2022/12/18 05:58:08;;;;;;;24.53;13.70;;;;;;;-4.23;99.74;102426.00;4983097;28;20045;-75
2022/12/18 06:00:35;;;;;;;28.20;13.07;;;;;;;-4.21;100.00;102427.03;5004642;28;20057;-75
2022/12/18 06:03:01;;;;;;;22.03;12.27;;;;;;;-4.16;100.00;102430.91;5001726;28;20045;-75
2022/12/18 06:05:27;;;;;;;28.07;16.00;;;;;;;-4.15;100.00;102431.81;5006815;28;20039;-75
2022/12/18 06:07:52;;;;;;;29.30;14.37;;;;;;;-4.05;100.00;102435.28;4991527;28;20029;-75
2022/12/18 06:10:18;;;;;;;29.67;15.50;;;;;;;-4.08;100.00;102440.19;5002578;28;20040;-75
2022/12/18 06:12:43;;;;;;;28.03;14.53;;;;;;;-4.13;100.00;102446.63;5004002;28;20113;-75
2022/12/18 06:15:08;;;;;;;23.70;13.03;;;;;;;-4.05;100.00;102445.59;5001522;28;20545;-75
2022/12/18 06:17:34;;;;;;;21.60;12.57;;;;;;;-4.10;99.78;102452.03;5003920;28;20069;-75
2022/12/18 06:20:00;;;;;;;21.90;11.67;;;;;;;-4.10;100.00;102457.19;4980950;28;20188;-75
2022/12/18 06:22:26;;;;;;;16.87;9.63;;;;;;;-4.08;99.67;102455.66;5002408;28;20045;-75
2022/12/18 06:24:51;;;;;;;21.93;11.93;;;;;;;-4.19;98.96;102461.59;5008294;28;20029;-75
2022/12/18 06:27:16;;;;;;;19.87;12.07;;;;;;;-4.24;98.69;102462.88;4984304;28;20128;-75
2022/12/18 06:29:42;;;;;;;19.10;11.07;;;;;;;-4.27;99.02;102457.44;5005610;28;20038;-75
2022/12/18 06:32:07;;;;;;;20.80;12.00;;;;;;;-4.31;99.42;102460.56;5000868;28;20181;-75
2022/12/18 06:34:33;;;;;;;24.63;12.17;;;;;;;-4.28;99.73;102458.22;5004085;28;20099;-75
2022/12/18 06:36:58;;;;;;;22.37;12.30;;;;;;;-4.27;100.00;102466.13;5001617;28;20038;-75
2022/12/18 06:39:24;;;;;;;22.80;12.60;;;;;;;-4.21;99.49;102473.47;4985366;28;20042;-75
2022/12/18 06:41:49;;;;;;;21.03;12.20;;;;;;;-4.19;99.40;102466.75;5002982;28;20030;-75
2022/12/18 06:44:15;;;;;;;24.93;13.33;;;;;;;-4.20;99.28;102476.16;5001476;28;20038;-75
2022/12/18 06:46:40;;;;;;;24.77;13.93;;;;;;;-4.28;98.97;102471.13;5003717;28;20044;-75
2022/12/18 06:49:05;;;;;;;19.60;10.93;;;;;;;-4.31;100.00;102471.78;5004247;28;20030;-75
2022/12/18 06:51:31;;;;;;;21.40;12.13;;;;;;;-4.28;99.39;102471.13;4980448;28;20068;-75
2022/12/18 06:53:56;;;;;;;23.90;12.93;;;;;;;-4.42;98.05;102473.44;5001884;28;20413;-75
2022/12/18 06:56:21;;;;;;;25.10;13.07;;;;;;;-4.42;98.84;102478.59;5002689;28;20512;-75
2022/12/18 06:58:50;;;;;;;22.57;12.47;;;;;;;-4.49;99.20;102480.50;5002778;28;20036;-75
2022/12/18 07:01:15;;;;;;;22.50;12.40;;;;;;;-4.47;99.03;102482.44;5000544;28;20037;-75
2022/12/18 07:03:41;;;;;;;21.27;11.90;;;;;;;-4.50;98.98;102492.50;5003867;28;20033;-74
2022/12/18 07:06:13;;;;;;;20.67;11.10;;;;;;;-4.47;98.19;102502.19;5000835;28;20068;-74
2022/12/18 07:08:39;;;;;;;21.35;11.55;;;;;;;-4.47;98.56;102500.50;5001716;28;20037;-75
2022/12/18 07:11:04;;;;;;;18.97;10.70;;;;;;;-4.43;98.31;102500.00;5003023;28;20092;-75
2022/12/18 07:13:30;;;;;;;18.63;10.63;;;;;;;-4.47;98.22;102494.44;5004457;28;20033;-75
2022/12/18 07:15:55;;;;;;;17.40;10.50;;;;;;;-4.55;97.60;102503.19;4979356;28;20046;-74
2022/12/18 07:18:20;;;;;;;24.30;11.67;;;;;;;-4.59;97.83;102498.53;5000998;28;20075;-75
2022/12/18 07:20:45;;;;;;;24.30;12.13;;;;;;;-4.63;98.00;102498.28;5006130;28;20037;-75
2022/12/18 07:23:11;;;;;;;22.03;12.00;;;;;;;-4.64;98.66;102503.28;5001847;28;20030;-75
2022/12/18 07:25:37;;;;;;;22.63;12.53;;;;;;;-4.53;98.60;102505.13;5002284;28;20037;-75
2022/12/18 07:28:03;;;;;;;28.10;13.33;;;;;;;-4.46;98.30;102507.44;5000180;28;20065;-75
2022/12/18 07:30:28;;;;;;;19.37;11.07;;;;;;;-4.52;98.62;102506.91;5002710;28;20585;-75
2022/12/18 07:32:53;;;;;;;25.00;13.70;;;;;;;-4.51;97.78;102503.56;5000515;28;20042;-75
2022/12/18 07:35:19;;;;;;;24.87;13.60;;;;;;;-4.51;97.88;102503.56;5007404;28;20348;-75
2022/12/18 07:37:44;;;;;;;23.17;12.90;;;;;;;-4.42;98.48;102512.09;5001725;28;20489;-75
2022/12/18 07:40:10;;;;;;;23.73;12.90;;;;;;;-4.32;98.10;102508.66;5000185;28;20045;-74
2022/12/18 07:42:36;;;;;;;22.80;12.60;;;;;;;-4.31;98.62;102510.44;5007280;28;20064;-75
2022/12/18 07:45:02;;;;;;;24.77;12.13;;;;;;;-4.22;97.99;102515.47;4982460;28;20046;-75
2022/12/18 07:47:31;;;;;;;29.83;14.23;;;;;;;-4.19;97.84;102523.50;5002629;28;20493;-75
2022/12/18 07:49:56;;;;;;;21.57;11.90;;;;;;;-4.18;97.45;102525.28;5001115;28;20569;-76
2022/12/18 07:52:21;;;;;;;20.07;11.83;;;;;;;-4.14;97.63;102523.84;5007205;28;20046;-75
2022/12/18 07:54:49;;;;;;;26.40;13.57;;;;;;;-4.09;97.35;102514.84;5002798;28;20116;-75
2022/12/18 07:57:16;;;;;;;26.77;14.47;;;;;;;-3.99;98.13;102507.09;5007853;28;20053;-75
2022/12/18 07:59:41;;;;;;;32.70;16.17;;;;;;;-3.90;98.02;102501.81;5000059;28;20072;-75
2022/12/18 08:02:06;;;;;;;29.00;15.33;;;;;;;-3.90;98.05;102500.16;5002253;28;20497;-75
2022/12/18 08:04:31;;;;;;;30.57;15.83;;;;;;;-3.78;97.52;102492.50;5015719;28;20408;-75
2022/12/18 08:06:57;;;;;;;28.90;15.10;;;;;;;-3.66;97.10;102483.22;5001466;28;20673;-75
2022/12/18 08:09:22;;;;;;;23.37;12.30;;;;;;;-3.62;96.50;102484.34;5000437;28;20096;-75
2022/12/18 08:11:47;;;;;;;26.10;14.47;;;;;;;-3.63;95.80;102490.31;5002864;28;20030;-75
2022/12/18 08:14:14;;;;;;;26.67;15.13;;;;;;;-3.69;95.46;102492.34;5005061;28;20087;-75
2022/12/18 08:16:39;;;;;;;24.47;13.83;;;;;;;-3.86;94.57;102507.34;5002168;28;20092;-75
2022/12/18 08:19:05;;;;;;;23.37;12.27;;;;;;;-4.04;94.92;102511.88;5000683;28;20042;-75
2022/12/18 08:21:31;;;;;;;23.03;13.00;;;;;;;-4.19;94.61;102503.75;5029493;23;20046;-76
2022/12/18 08:23:59;;;;;;;22.70;12.80;;;;;;;-4.31;95.50;102506.97;5002606;28;20109;-73
2022/12/18 08:26:27;;;;;;;22.00;11.70;;;;;;;-4.42;95.28;102511.19;5022333;28;20029;-73
2022/12/18 08:28:55;;;;;;;21.20;11.80;;;;;;;-4.56;95.68;102514.25;5020176;28;20026;-73
2022/12/18 08:31:20;;;;;;;20.63;11.00;;;;;;;-4.58;95.52;102518.41;5020896;28;20038;-73
2022/12/18 08:33:49;;;;;;;22.87;11.60;;;;;;;-4.53;96.88;102512.88;5021297;28;20144;-73
2022/12/18 08:36:14;;;;;;;21.33;11.83;;;;;;;-4.50;96.20;102526.00;5019173;28;20397;-73
2022/12/18 08:38:40;;;;;;;17.43;10.73;;;;;;;-4.59;96.42;102519.16;5022724;28;20095;-73
2022/12/18 08:41:07;;;;;;;22.70;12.13;;;;;;;-4.68;95.48;102524.41;5024351;28;20033;-73
2022/12/18 08:46:17;;;;;;;20.33;11.90;;;;;;;-4.82;95.53;102522.28;5022814;28;20559;-73
2022/12/18 08:48:43;;;;;;;23.33;12.13;;;;;;;-4.92;96.23;102516.34;5026553;28;20038;-73
2022/12/18 08:51:09;;;;;;;19.63;11.57;;;;;;;-4.92;96.42;102524.06;5024016;28;20053;-73
2022/12/18 08:53:35;;;;;;;21.13;11.97;;;;;;;-4.93;96.68;102517.09;5025117;28;20120;-73
2022/12/18 08:56:01;;;;;;;23.67;13.20;;;;;;;-4.92;96.58;102508.63;5024263;28;20057;-73
2022/12/18 08:58:26;;;;;;;20.67;11.70;;;;;;;-4.94;97.34;102515.31;5025702;28;20079;-73
2022/12/18 09:00:51;;;;;;;22.20;11.13;;;;;;;-4.95;97.23;102522.88;5023877;28;20061;-73
2022/12/18 09:03:19;;;;;;;19.87;10.67;;;;;;;-4.97;96.47;102525.34;5007143;28;20041;-73
2022/12/18 09:05:45;;;;;;;21.33;12.47;;;;;;;-5.02;96.08;102526.59;5023927;28;20511;-73
2022/12/18 09:08:11;;;;;;;18.43;10.80;;;;;;;-5.04;96.53;102528.13;5022975;28;20494;-73
2022/12/18 09:10:44;;;;;;;18.17;9.97;;;;;;;-5.07;96.58;102527.88;5027701;28;20049;-73
2022/12/18 09:13:10;;;;;;;16.73;9.53;;;;;;;-5.08;96.95;102538.94;5022231;28;20519;-73
2022/12/18 09:15:50;;;;;;;20.17;10.93;;;;;;;-5.03;97.18;102554.78;5023463;28;20496;-73
2022/12/18 09:18:17;;;;;;;20.27;11.50;;;;;;;-4.99;96.37;102554.31;5022616;28;20038;-73
2022/12/18 09:20:43;;;;;;;16.80;9.37;;;;;;;-5.00;96.78;102555.97;5026709;28;20033;-73
2022/12/18 09:23:09;;;;;;;17.07;9.80;;;;;;;-4.98;96.67;102551.84;5025201;28;20047;-73
2022/12/18 09:25:35;;;;;;;17.93;9.47;;;;;;;-5.00;96.42;102552.47;5024159;28;20083;-73
2022/12/18 09:28:02;;;;;;;16.70;9.60;;;;;;;-4.96;97.11;102554.56;5021960;28;20056;-73
2022/12/18 09:30:28;;;;;;;17.30;9.53;;;;;;;-4.93;96.55;102558.31;5022071;28;20041;-73
2022/12/18 09:32:53;;;;;;;15.57;9.30;;;;;;;-4.90;97.03;102562.81;5026941;28;20025;-73
2022/12/18 09:35:18;;;;;;;18.70;10.33;;;;;;;-4.91;96.71;102566.19;5023040;28;20386;-73
2022/12/18 09:37:43;;;;;;;16.37;9.37;;;;;;;-4.87;96.22;102563.13;5023062;28;20535;-73
2022/12/18 09:40:23;;;;;;;17.30;9.50;;;;;;;-4.85;97.31;102562.50;5024145;28;20037;-73
2022/12/18 09:42:55;;;;;;;17.67;9.93;;;;;;;-4.80;97.15;102564.56;5022817;28;20408;-73
2022/12/18 09:45:21;;;;;;;18.27;9.60;;;;;;;-4.73;97.22;102557.50;5025427;28;20064;-73
2022/12/18 09:47:48;;;;;;;16.90;9.67;;;;;;;-4.66;96.44;102543.50;5025402;28;20690;-73
2022/12/18 09:50:33;;;;;;;14.50;8.50;;;;;;;-4.56;96.66;102543.50;5021730;28;20049;-73
2022/12/18 09:53:04;;;;;;;19.70;10.43;;;;;;;-4.53;95.96;102536.06;5020485;28;20481;-73
2022/12/18 09:55:39;;;;;;;16.37;9.17;;;;;;;-4.48;96.36;102529.63;5025735;28;20041;-73
2022/12/18 09:58:44;;;;;;;15.10;8.30;;;;;;;-4.42;96.47;102529.25;5028206;28;20083;-73
2022/12/18 10:01:16;;;;;;;14.33;8.53;;;;;;;-4.34;96.03;102529.91;5026969;28;20041;-73
2022/12/18 10:03:43;;;;;;;18.43;10.03;;;;;;;-4.33;95.12;102516.22;5024786;28;20033;-74
2022/12/18 10:06:38;;;;;;;19.73;10.33;;;;;;;-4.27;95.75;102498.69;5024483;28;20384;-73
2022/12/18 10:09:16;;;;;;;17.63;9.63;;;;;;;-4.25;95.67;102494.59;5001632;28;20500;-73
2022/12/18 10:11:59;;;;;;;18.13;8.43;;;;;;;-4.24;95.92;102481.84;5021541;28;20042;-73
2022/12/18 10:14:42;;;;;;;16.63;9.23;;;;;;;-4.23;95.34;102482.72;5023051;28;20042;-73
2022/12/18 10:17:21;;;;;;;16.30;9.57;;;;;;;-4.14;95.61;102480.91;5024119;28;20037;-73
2022/12/18 10:19:56;;;;;;;17.77;9.93;;;;;;;-4.07;95.52;102483.25;5024210;28;20068;-73
2022/12/18 10:22:43;;;;;;;16.30;9.30;;;;;;;-4.02;95.37;102479.38;5022183;28;20046;-73
2022/12/18 10:25:31;;;;;;;17.17;9.33;;;;;;;-3.93;95.42;102465.44;5022057;28;20037;-73
2022/12/18 10:28:00;;;;;;;16.57;9.83;;;;;;;-3.89;94.81;102467.50;5025451;28;20392;-73
2022/12/18 10:30:26;;;;;;;17.10;9.43;;;;;;;-3.90;94.76;102465.69;5021955;28;20041;-73
2022/12/18 10:32:52;;;;;;;15.90;8.87;;;;;;;-3.82;94.74;102462.09;5023438;28;20091;-73
2022/12/18 10:35:21;;;;;;;16.03;8.60;;;;;;;-3.76;94.49;102455.75;5020512;28;20489;-74
2022/12/18 10:38:05;;;;;;;19.70;10.30;;;;;;;-3.69;95.15;102458.81;5023303;28;20199;-74
2022/12/18 10:40:31;;;;;;;16.07;9.87;;;;;;;-3.64;94.76;102458.44;5025451;28;20144;-73
2022/12/18 10:43:11;;;;;;;17.83;10.00;;;;;;;-3.58;94.19;102450.28;5021033;28;20468;-74
2022/12/18 10:45:37;;;;;;;17.80;9.67;;;;;;;-3.53;94.62;102451.56;5020389;28;20180;-74
2022/12/18 10:48:03;;;;;;;16.63;9.90;;;;;;;-3.47;94.76;102446.00;5023771;28;20116;-74
2022/12/18 10:50:32;;;;;;;15.53;9.70;;;;;;;-3.43;94.48;102442.88;5023765;28;20135;-74
2022/12/18 10:53:00;;;;;;;15.67;8.90;;;;;;;-3.38;94.00;102444.13;5021923;28;20052;-74
2022/12/18 10:55:37;;;;;;;18.70;10.77;;;;;;;-3.32;93.94;102436.91;5020726;28;20041;-73
2022/12/18 10:58:15;;;;;;;17.73;10.93;;;;;;;-3.25;94.27;102439.19;5021375;28;20061;-74
2022/12/18 11:00:41;;;;;;;15.47;9.30;;;;;;;-3.20;94.27;102435.28;5020122;28;20033;-74
2022/12/18 11:03:31;;;;;;;15.50;9.73;;;;;;;-3.14;93.95;102420.31;5023734;28;20042;-74
2022/12/18 11:06:07;;;;;;;16.07;8.73;;;;;;;-3.08;94.01;102419.88;5020136;28;20030;-74
2022/12/18 11:08:32;;;;;;;19.13;9.37;;;;;;;-3.04;93.22;102415.84;5021235;28;20052;-74
2022/12/18 11:10:58;;;;;;;15.43;9.57;;;;;;;-3.01;93.98;102406.69;5022736;28;20684;-74
2022/12/18 11:13:26;;;;;;;16.77;9.47;;;;;;;-2.94;93.89;102403.75;5023776;28;20025;-74
2022/12/18 11:15:52;;;;;;;17.70;9.70;;;;;;;-2.88;93.75;102408.53;5022514;28;20040;-74
2022/12/18 11:18:26;;;;;;;17.47;9.37;;;;;;;-2.78;93.29;102404.97;5021049;28;20050;-74
2022/12/18 11:20:58;;;;;;;17.07;9.60;;;;;;;-2.77;92.70;102404.19;5020227;28;20412;-74
2022/12/18 11:23:24;;;;;;;19.37;11.07;;;;;;;-2.73;93.44;102425.22;5020614;28;20049;-74
2022/12/18 11:25:59;;;;;;;17.93;10.23;;;;;;;-2.67;92.72;102423.13;5022674;28;20037;-74